Time;durP1;ratioP1;P1;durP2;ratioP2;P2;SDS_P1;SDS_P2;PMS_P1;PMS_P2;Temp;Humidity;BMP_temperature;BMP_pressure;BME280_temperature;BME280_humidity;BME280_pressure;Samples;Min_cycle;Max_cycle;Signal;HPM_P1;HPM_P2
2021/04/23 00:03:03;;;;;;;8.53;5.43;;;2.00;99.90;;;;;;6235822;28;20374;-72
2021/04/23 00:06:13;;;;;;;6.90;5.37;;;2.00;99.90;;;;;;6231689;28;20323;-72
2021/04/23 00:09:27;;;;;;;9.07;4.97;;;2.00;99.90;;;;;;6230582;28;20275;-72
2021/04/23 00:12:29;;;;;;;10.60;5.20;;;2.00;99.90;;;;;;6230717;28;20315;-72
2021/04/23 00:15:31;;;;;;;8.90;5.70;;;2.00;99.90;;;;;;6235645;28;20629;-72
2021/04/23 00:18:33;;;;;;;6.13;5.03;;;2.00;99.90;;;;;;6215651;28;20378;-72
2021/04/23 00:21:36;;;;;;;5.83;4.50;;;2.00;99.90;;;;;;6240229;28;20699;-72
2021/04/23 00:24:39;;;;;;;9.40;5.13;;;2.00;99.90;;;;;;6241034;28;20246;-72
2021/04/23 00:27:44;;;;;;;5.40;4.60;;;2.00;99.90;;;;;;6242289;28;20432;-72
2021/04/23 00:30:51;;;;;;;6.63;5.00;;;2.00;99.90;;;;;;6241871;28;20245;-72
2021/04/23 00:33:53;;;;;;;9.63;4.90;;;2.00;99.90;;;;;;6254152;28;20242;-72
2021/04/23 00:36:55;;;;;;;12.13;5.27;;;2.00;99.90;;;;;;6252387;28;20263;-72
2021/04/23 00:39:56;;;;;;;11.80;5.37;;;1.90;99.90;;;;;;6241305;28;20318;-72
2021/04/23 00:43:00;;;;;;;6.93;5.13;;;1.90;99.90;;;;;;6241376;28;20738;-72
2021/04/23 00:46:02;;;;;;;6.30;5.10;;;1.90;99.90;;;;;;6241453;28;20606;-72
2021/04/23 00:49:05;;;;;;;8.63;5.30;;;1.80;99.90;;;;;;6257628;28;20235;-72
2021/04/23 00:52:09;;;;;;;8.77;4.97;;;1.80;99.90;;;;;;6240068;28;20231;-72
2021/04/23 00:55:12;;;;;;;8.43;4.20;;;1.80;99.90;;;;;;6257063;28;20292;-72
2021/04/23 00:58:19;;;;;;;7.03;4.83;;;1.70;99.90;;;;;;6258417;28;20567;-72
2021/04/23 01:01:29;;;;;;;10.03;4.90;;;1.70;99.90;;;;;;6278591;28;20307;-72
2021/04/23 01:04:31;;;;;;;9.43;5.30;;;1.60;99.90;;;;;;6265902;28;20290;-72
2021/04/23 01:07:33;;;;;;;8.73;4.60;;;1.60;99.90;;;;;;6218906;28;20385;-72
2021/04/23 01:10:36;;;;;;;8.40;4.83;;;1.60;99.90;;;;;;6215567;28;20335;-71
2021/04/23 01:13:38;;;;;;;11.87;5.40;;;1.60;99.90;;;;;;6233994;28;20274;-71
2021/04/23 01:16:41;;;;;;;11.43;6.07;;;1.60;99.90;;;;;;6231908;28;20244;-72
2021/04/23 01:19:43;;;;;;;6.37;4.83;;;1.60;99.90;;;;;;6242034;28;20223;-72
2021/04/23 01:22:45;;;;;;;10.10;5.47;;;1.60;99.90;;;;;;6239762;28;20770;-72
2021/04/23 01:25:47;;;;;;;8.57;4.83;;;1.60;99.90;;;;;;6222478;28;20325;-72
2021/04/23 01:28:51;;;;;;;8.40;5.27;;;1.60;99.90;;;;;;6238615;28;20305;-72
2021/04/23 01:31:55;;;;;;;6.13;5.27;;;1.60;99.90;;;;;;6256299;28;20274;-72
2021/04/23 01:34:58;;;;;;;5.63;4.70;;;1.60;99.90;;;;;;6244491;28;20224;-72
2021/04/23 01:37:59;;;;;;;9.03;5.20;;;1.60;99.90;;;;;;6215071;28;20237;-72
2021/04/23 01:41:02;;;;;;;8.53;4.80;;;1.60;99.90;;;;;;6232657;28;20323;-72
2021/04/23 01:44:05;;;;;;;8.00;5.23;;;1.60;99.90;;;;;;6232298;28;20346;-72
2021/04/23 01:47:08;;;;;;;7.20;4.83;;;1.50;99.90;;;;;;6224602;28;20227;-72
2021/04/23 01:50:16;;;;;;;6.83;5.27;;;1.50;99.90;;;;;;6239355;28;20231;-72
2021/04/23 01:53:19;;;;;;;9.37;5.10;;;1.50;99.90;;;;;;6256938;28;20318;-71
2021/04/23 01:56:20;;;;;;;7.20;5.70;;;1.50;99.90;;;;;;6257316;28;20309;-72
2021/04/23 01:59:23;;;;;;;11.77;5.87;;;1.40;99.90;;;;;;6256966;28;20597;-72
2021/04/23 02:02:25;;;;;;;8.27;4.97;;;1.40;99.90;;;;;;6238563;28;20319;-72
2021/04/23 02:05:28;;;;;;;9.20;5.37;;;1.40;99.90;;;;;;6222512;28;20223;-72
2021/04/23 02:08:33;;;;;;;7.80;5.27;;;1.40;99.90;;;;;;6257782;28;20403;-72
2021/04/23 02:11:36;;;;;;;6.40;4.90;;;1.30;99.90;;;;;;6257395;28;20839;-72
2021/04/23 02:14:38;;;;;;;6.37;4.43;;;1.30;99.90;;;;;;6256658;28;20238;-72
2021/04/23 02:17:42;;;;;;;7.17;4.73;;;1.30;99.90;;;;;;6257421;28;20238;-72
2021/04/23 02:20:44;;;;;;;5.17;4.67;;;1.20;99.90;;;;;;6237189;28;20231;-71
2021/04/23 02:23:48;;;;;;;11.87;6.30;;;1.20;99.90;;;;;;6255989;28;20437;-72
2021/04/23 02:26:50;;;;;;;7.53;4.70;;;1.20;99.90;;;;;;6237617;28;20247;-72
2021/04/23 02:29:52;;;;;;;8.43;5.13;;;1.20;99.90;;;;;;6229729;28;20708;-72
2021/04/23 02:32:56;;;;;;;10.10;5.63;;;1.10;99.90;;;;;;6230227;28;20261;-72
2021/04/23 02:36:00;;;;;;;9.87;4.93;;;1.10;99.90;;;;;;6208505;28;20247;-72
2021/04/23 02:39:05;;;;;;;6.37;4.43;;;1.10;99.90;;;;;;6204831;28;20311;-72
2021/04/23 02:42:07;;;;;;;6.17;5.33;;;1.10;99.90;;;;;;6207318;28;20607;-72
2021/04/23 02:45:13;;;;;;;8.37;4.90;;;1.00;99.90;;;;;;6208029;28;20204;-72
2021/04/23 02:48:18;;;;;;;7.03;5.07;;;1.00;99.90;;;;;;6225515;28;20649;-72
2021/04/23 02:51:27;;;;;;;7.30;5.23;;;1.00;99.90;;;;;;6213687;28;20235;-72
2021/04/23 02:54:29;;;;;;;6.97;4.90;;;0.90;99.90;;;;;;6230232;28;20236;-72
2021/04/23 02:57:30;;;;;;;8.40;4.40;;;0.90;99.90;;;;;;6236474;28;20279;-72
2021/04/23 03:00:36;;;;;;;6.93;4.53;;;0.90;99.90;;;;;;6234602;28;20237;-73
2021/04/23 03:03:39;;;;;;;8.70;4.70;;;0.90;99.90;;;;;;6230850;28;20241;-72
2021/04/23 03:06:41;;;;;;;6.27;4.87;;;0.80;99.90;;;;;;6230052;28;20234;-72
2021/04/23 03:09:43;;;;;;;5.43;4.67;;;0.80;99.90;;;;;;6229844;28;20247;-72
2021/04/23 03:12:45;;;;;;;6.60;4.50;;;0.80;99.90;;;;;;6229485;28;20232;-72
2021/04/23 03:15:48;;;;;;;9.37;4.37;;;0.80;99.90;;;;;;6229976;28;20250;-72
2021/04/23 03:18:51;;;;;;;10.03;4.53;;;0.70;99.90;;;;;;6231193;28;20290;-72
2021/04/23 03:21:54;;;;;;;6.33;4.77;;;0.70;99.90;;;;;;6230034;28;20220;-72
2021/04/23 03:24:56;;;;;;;6.67;4.70;;;0.70;99.90;;;;;;6229823;28;20329;-72
2021/04/23 03:27:58;;;;;;;7.03;4.33;;;0.70;99.90;;;;;;6229293;28;20259;-72
2021/04/23 03:31:00;;;;;;;7.30;4.60;;;0.60;99.90;;;;;;6229507;28;20253;-72
2021/04/23 03:34:03;;;;;;;8.83;4.77;;;0.60;99.90;;;;;;6224653;28;20262;-72
2021/04/23 03:37:05;;;;;;;7.63;4.73;;;0.60;99.90;;;;;;6206444;28;20752;-72
2021/04/23 03:40:08;;;;;;;7.80;5.07;;;0.60;99.90;;;;;;6206033;28;20224;-72
2021/04/23 03:43:13;;;;;;;7.20;4.80;;;0.60;99.90;;;;;;6207295;28;20224;-72
2021/04/23 03:46:15;;;;;;;8.30;5.10;;;0.60;99.90;;;;;;6206933;28;20278;-72
2021/04/23 03:49:17;;;;;;;5.90;3.97;;;0.60;99.90;;;;;;6233254;28;20232;-72
2021/04/23 03:52:19;;;;;;;7.07;4.03;;;0.60;99.90;;;;;;6216416;28;20267;-72
2021/04/23 03:55:26;;;;;;;7.80;5.20;;;0.60;99.90;;;;;;6234667;28;20238;-72
2021/04/23 03:58:29;;;;;;;8.37;4.50;;;0.50;99.90;;;;;;6233923;28;20223;-72
2021/04/23 04:01:34;;;;;;;5.00;3.80;;;0.50;99.90;;;;;;6242189;28;20230;-72
2021/04/23 04:04:36;;;;;;;9.37;5.03;;;0.50;99.90;;;;;;6238218;28;20243;-72
2021/04/23 04:07:38;;;;;;;7.50;4.20;;;0.50;99.90;;;;;;6208045;28;20702;-72
2021/04/23 04:10:41;;;;;;;8.50;4.70;;;0.50;99.90;;;;;;6192960;28;20239;-72
2021/04/23 04:13:42;;;;;;;8.00;4.60;;;0.50;99.90;;;;;;6209833;28;20239;-72
2021/04/23 04:16:44;;;;;;;7.33;5.03;;;0.50;99.90;;;;;;6210609;28;20232;-72
2021/04/23 04:19:48;;;;;;;8.30;5.20;;;0.50;99.90;;;;;;6217373;28;20239;-72
2021/04/23 04:22:50;;;;;;;10.47;4.60;;;0.50;99.90;;;;;;6233957;28;20258;-72
2021/04/23 04:25:57;;;;;;;7.37;4.60;;;0.50;99.90;;;;;;6234646;28;20236;-72
2021/04/23 04:28:59;;;;;;;8.27;5.03;;;0.60;99.90;;;;;;6235212;28;20326;-72
2021/04/23 04:32:01;;;;;;;8.53;5.00;;;0.60;99.90;;;;;;6242771;28;20764;-72
2021/04/23 04:35:04;;;;;;;10.27;5.30;;;0.60;99.90;;;;;;6255039;28;20228;-72
2021/04/23 04:38:08;;;;;;;9.13;4.73;;;0.60;99.90;;;;;;6235035;28;20236;-72
2021/04/23 04:41:10;;;;;;;7.03;4.50;;;0.60;99.90;;;;;;6217376;28;20240;-73
2021/04/23 04:44:12;;;;;;;6.43;4.40;;;0.70;99.90;;;;;;6199888;28;20318;-72
2021/04/23 04:47:14;;;;;;;9.40;4.60;;;0.70;99.90;;;;;;6244319;28;20227;-72
2021/04/23 04:50:27;;;;;;;13.33;5.57;;;0.70;99.90;;;;;;6257792;28;20239;-72
2021/04/23 04:53:30;;;;;;;11.20;5.13;;;0.70;99.90;;;;;;6240183;28;20716;-72
2021/04/23 04:56:32;;;;;;;8.60;4.37;;;0.80;99.90;;;;;;6240608;28;20269;-72
2021/04/23 04:59:34;;;;;;;7.00;4.83;;;0.80;99.90;;;;;;6245664;28;20319;-72
2021/04/23 05:02:36;;;;;;;6.87;4.20;;;0.80;99.90;;;;;;6249278;28;20234;-72
2021/04/23 05:05:39;;;;;;;9.07;4.33;;;0.80;99.90;;;;;;6244882;28;20255;-72
2021/04/23 05:08:41;;;;;;;9.23;3.93;;;0.90;99.90;;;;;;6214943;28;20317;-72
2021/04/23 05:11:44;;;;;;;8.13;5.10;;;0.90;99.90;;;;;;6217228;28;20239;-72
2021/04/23 05:14:45;;;;;;;9.80;4.43;;;0.90;99.90;;;;;;6232322;28;20454;-72
2021/04/23 05:17:48;;;;;;;6.00;4.27;;;1.00;99.90;;;;;;6233162;28;20309;-72
2021/04/23 05:20:50;;;;;;;7.37;4.20;;;1.10;99.90;;;;;;6250699;28;20812;-72
2021/04/23 05:23:52;;;;;;;9.83;4.50;;;1.10;99.90;;;;;;6223675;28;20758;-73
2021/04/23 05:26:53;;;;;;;5.70;3.97;;;1.20;99.90;;;;;;6238973;28;20267;-72
2021/04/23 05:29:55;;;;;;;8.93;4.73;;;1.30;99.90;;;;;;6239421;28;20291;-72
2021/04/23 05:32:59;;;;;;;9.70;4.50;;;1.40;99.90;;;;;;6239058;28;20629;-72
2021/04/23 05:36:02;;;;;;;8.23;4.57;;;1.50;99.90;;;;;;6234733;28;20224;-72
2021/04/23 05:39:04;;;;;;;12.67;4.90;;;1.80;99.90;;;;;;6215129;28;20335;-72
2021/04/23 05:42:06;;;;;;;10.20;5.20;;;2.10;99.90;;;;;;6198720;28;20727;-72
2021/04/23 05:45:09;;;;;;;10.57;4.73;;;2.40;99.90;;;;;;6232875;28;20633;-73
2021/04/23 05:48:13;;;;;;;7.70;4.50;;;2.80;99.90;;;;;;6237357;28;20195;-72
2021/04/23 05:51:16;;;;;;;7.87;4.33;;;3.20;99.90;;;;;;6243894;28;20326;-72
2021/04/23 05:54:17;;;;;;;13.60;4.10;;;3.50;99.90;;;;;;6262063;28;20241;-72
2021/04/23 05:57:19;;;;;;;8.00;4.03;;;3.90;99.90;;;;;;6256305;28;20218;-72
2021/04/23 06:00:23;;;;;;;10.47;3.80;;;4.10;99.90;;;;;;6257957;28;20235;-72
2021/04/23 06:03:25;;;;;;;10.53;4.33;;;4.30;99.90;;;;;;6238298;28;20755;-73
2021/04/23 06:06:27;;;;;;;5.47;3.50;;;4.60;99.90;;;;;;6231940;28;20227;-72
2021/04/23 06:09:29;;;;;;;10.83;3.83;;;4.70;99.90;;;;;;6232423;28;20890;-72
2021/04/23 06:12:31;;;;;;;7.80;3.20;;;4.80;99.90;;;;;;6214180;28;20240;-72
2021/04/23 06:15:33;;;;;;;8.23;3.20;;;5.00;99.90;;;;;;6214249;28;20256;-72
2021/04/23 06:18:35;;;;;;;8.33;3.40;;;5.10;99.90;;;;;;6214618;28;20298;-72
2021/04/23 06:21:36;;;;;;;9.50;3.47;;;5.20;99.90;;;;;;6256417;28;20236;-72
2021/04/23 06:24:38;;;;;;;6.67;3.53;;;5.30;99.90;;;;;;6255513;28;20707;-72
2021/04/23 06:27:41;;;;;;;10.23;4.00;;;5.50;99.90;;;;;;6237682;28;20252;-72
2021/04/23 06:30:43;;;;;;;9.13;3.50;;;5.70;99.90;;;;;;6238034;28;20260;-72
2021/04/23 06:33:47;;;;;;;6.57;3.00;;;5.80;99.90;;;;;;6236079;28;20331;-72
2021/04/23 06:36:50;;;;;;;8.57;2.80;;;5.90;99.90;;;;;;6213093;28;20243;-72
2021/04/23 06:39:52;;;;;;;8.10;3.87;;;5.90;99.90;;;;;;6213617;28;20430;-72
2021/04/23 06:42:54;;;;;;;7.87;3.50;;;6.00;99.90;;;;;;6213596;28;20380;-72
2021/04/23 06:45:56;;;;;;;9.93;3.57;;;6.10;99.90;;;;;;6231881;28;20713;-72
2021/04/23 06:48:58;;;;;;;7.03;3.10;;;6.10;99.90;;;;;;6231078;28;20253;-72
2021/04/23 06:52:00;;;;;;;5.80;3.00;;;6.30;99.90;;;;;;6231483;28;20242;-72
2021/04/23 06:55:02;;;;;;;6.13;3.33;;;6.50;99.90;;;;;;6231316;28;20265;-71
2021/04/23 06:58:04;;;;;;;13.50;3.60;;;6.70;99.90;;;;;;6229132;28;20316;-72
2021/04/23 07:01:06;;;;;;;8.07;3.47;;;6.90;99.90;;;;;;6230861;28;20708;-72
2021/04/23 07:04:09;;;;;;;10.03;3.43;;;7.10;99.90;;;;;;6236573;28;20239;-72
2021/04/23 07:07:10;;;;;;;7.13;3.37;;;7.30;98.70;;;;;;6255351;28;20333;-72
2021/04/23 07:10:20;;;;;;;7.40;3.43;;;7.50;98.50;;;;;;6255263;28;20265;-73
2021/04/23 07:13:21;;;;;;;5.80;3.10;;;7.50;97.10;;;;;;6236764;28;20377;-73
2021/04/23 07:16:23;;;;;;;8.07;3.17;;;7.70;97.80;;;;;;6237143;28;20233;-72
2021/04/23 07:19:25;;;;;;;8.97;3.30;;;8.00;96.40;;;;;;6237086;28;20223;-72
2021/04/23 07:22:27;;;;;;;6.13;3.00;;;8.30;95.30;;;;;;6252950;28;20231;-72
2021/04/23 07:25:29;;;;;;;6.93;3.57;;;8.50;94.50;;;;;;6237234;28;20580;-73
2021/04/23 07:28:31;;;;;;;6.93;3.33;;;8.70;93.40;;;;;;6255104;28;20318;-73
2021/04/23 07:31:33;;;;;;;6.20;3.13;;;9.00;92.40;;;;;;6254361;28;20712;-73
2021/04/23 07:34:35;;;;;;;5.87;2.90;;;9.10;90.30;;;;;;6225720;28;20228;-73
2021/04/23 07:37:39;;;;;;;6.63;3.07;;;9.30;90.40;;;;;;6213511;28;20607;-73
2021/04/23 07:40:41;;;;;;;5.33;3.03;;;9.50;88.00;;;;;;6213270;28;20322;-73
2021/04/23 07:43:43;;;;;;;4.40;2.33;;;9.80;85.30;;;;;;6228726;28;20645;-72
2021/04/23 07:46:46;;;;;;;6.50;2.77;;;10.00;82.10;;;;;;6235883;28;20318;-73
2021/04/23 07:49:49;;;;;;;8.33;2.90;;;10.30;78.70;;;;;;6255277;28;20234;-73
2021/04/23 07:52:54;;;;;;;4.57;2.50;;;10.40;78.60;;;;;;6254987;28;20375;-73
2021/04/23 07:55:56;;;;;;;5.57;2.60;;;10.60;78.40;;;;;;6236653;28;20717;-74
2021/04/23 07:58:57;;;;;;;6.73;2.20;;;10.90;74.70;;;;;;6255025;28;20233;-74
2021/04/23 08:02:01;;;;;;;7.27;2.20;;;11.10;73.40;;;;;;6254579;28;20575;-73
2021/04/23 08:05:06;;;;;;;6.40;2.43;;;11.20;69.20;;;;;;6235989;28;20255;-74
2021/04/23 08:08:28;;;;;;;7.70;2.63;;;11.50;66.70;;;;;;6253163;28;20231;-74
2021/04/23 08:11:30;;;;;;;4.83;2.60;;;11.70;66.40;;;;;;6235385;28;20254;-74
2021/04/23 08:14:32;;;;;;;7.67;2.97;;;11.90;63.30;;;;;;6254281;28;20252;-74
2021/04/23 08:17:34;;;;;;;6.60;2.57;;;12.00;63.30;;;;;;6254827;28;20737;-74
2021/04/23 08:20:37;;;;;;;6.27;2.37;;;11.90;61.30;;;;;;6235831;28;20231;-74
2021/04/23 08:23:39;;;;;;;10.50;2.83;;;12.10;64.10;;;;;;6254724;28;20241;-74
2021/04/23 08:26:43;;;;;;;5.60;2.53;;;12.40;63.00;;;;;;6236036;28;20234;-74
2021/04/23 08:29:45;;;;;;;7.30;2.63;;;12.40;60.00;;;;;;6255219;28;20389;-73
2021/04/23 08:32:47;;;;;;;7.20;3.10;;;12.50;61.60;;;;;;6265659;28;20580;-73
2021/04/23 08:35:49;;;;;;;5.97;3.00;;;12.60;58.70;;;;;;6223821;28;20223;-74
2021/04/23 08:38:51;;;;;;;9.10;3.27;;;12.60;57.10;;;;;;6233829;28;20323;-74
2021/04/23 08:41:54;;;;;;;7.40;3.17;;;12.60;59.70;;;;;;6233602;28;20708;-73
2021/04/23 08:44:56;;;;;;;7.23;3.70;;;12.70;58.50;;;;;;6215984;28;20224;-73
2021/04/23 08:47:59;;;;;;;5.87;3.13;;;13.00;60.60;;;;;;6249622;28;20369;-74
2021/04/23 08:51:01;;;;;;;5.97;3.20;;;13.10;57.70;;;;;;6239903;28;20239;-74
2021/04/23 08:54:05;;;;;;;9.70;3.57;;;13.20;58.60;;;;;;6241077;28;20208;-74
2021/04/23 08:57:08;;;;;;;6.07;3.20;;;13.60;58.10;;;;;;6239894;28;20218;-74
2021/04/23 09:00:11;;;;;;;5.93;2.90;;;13.70;55.50;;;;;;6258416;28;20217;-72
2021/04/23 09:03:19;;;;;;;8.40;3.27;;;13.90;56.70;;;;;;6258402;28;20296;-73
2021/04/23 09:06:24;;;;;;;7.60;3.50;;;14.20;57.90;;;;;;6217601;28;20239;-73
2021/04/23 09:09:36;;;;;;;6.50;3.00;;;14.30;57.60;;;;;;6232879;28;20296;-73
2021/04/23 09:12:40;;;;;;;5.43;2.63;;;14.40;55.80;;;;;;6232016;28;20234;-74
2021/04/23 09:15:45;;;;;;;7.10;3.37;;;14.60;53.60;;;;;;6215392;28;20300;-74
2021/04/23 09:18:47;;;;;;;9.17;3.53;;;14.60;54.90;;;;;;6216783;28;20357;-74
2021/04/23 09:21:59;;;;;;;5.93;2.83;;;14.60;53.90;;;;;;6223351;28;20321;-73
2021/04/23 09:25:13;;;;;;;5.50;3.37;;;14.90;54.80;;;;;;6256927;28;20262;-73
2021/04/23 09:28:32;;;;;;;6.60;3.43;;;15.30;54.50;;;;;;6241150;28;20258;-73
2021/04/23 09:31:35;;;;;;;9.10;3.67;;;15.50;53.50;;;;;;6257977;28;20871;-74
2021/04/23 09:35:00;;;;;;;8.53;3.37;;;15.50;50.90;;;;;;6228248;28;20243;-74
2021/04/23 09:38:03;;;;;;;7.17;3.23;;;15.50;52.90;;;;;;6216120;28;20329;-73
2021/04/23 09:41:20;;;;;;;7.93;3.60;;;15.50;52.20;;;;;;6231750;28;20582;-73
2021/04/23 09:44:29;;;;;;;6.80;2.87;;;15.70;53.40;;;;;;6214366;28;20312;-73
2021/04/23 09:47:36;;;;;;;4.83;2.80;;;15.80;50.80;;;;;;6244293;28;20322;-72
2021/04/23 09:50:38;;;;;;;8.77;3.60;;;15.70;50.80;;;;;;6239704;28;20330;-73
2021/04/23 09:53:43;;;;;;;9.73;3.53;;;16.00;52.50;;;;;;6256948;28;20231;-74
2021/04/23 09:56:46;;;;;;;5.33;2.83;;;16.20;48.40;;;;;;6238558;28;20227;-73
2021/04/23 09:59:53;;;;;;;6.57;3.10;;;15.90;49.70;;;;;;6257753;28;20737;-73
2021/04/23 10:03:00;;;;;;;5.50;2.80;;;16.10;50.50;;;;;;6256514;28;20235;-73
2021/04/23 10:06:22;;;;;;;5.37;2.50;;;16.40;50.40;;;;;;6217063;28;20609;-73
2021/04/23 10:09:24;;;;;;;5.43;3.43;;;16.20;49.90;;;;;;6231994;28;20235;-73
2021/04/23 10:12:35;;;;;;;5.57;3.37;;;16.30;48.50;;;;;;6231730;28;20302;-73
2021/04/23 10:15:44;;;;;;;4.37;2.83;;;16.30;49.20;;;;;;6238109;28;20298;-72
2021/04/23 10:18:46;;;;;;;5.40;2.70;;;16.40;48.80;;;;;;6236843;28;20716;-73
2021/04/23 10:21:49;;;;;;;4.77;2.57;;;16.90;49.70;;;;;;6237776;28;20230;-73
2021/04/23 10:24:52;;;;;;;8.37;2.60;;;16.70;47.20;;;;;;6256385;28;20696;-73
2021/04/23 10:27:56;;;;;;;5.73;2.60;;;16.40;47.40;;;;;;6255873;28;20239;-73
2021/04/23 10:30:58;;;;;;;5.40;2.60;;;16.40;48.00;;;;;;6238338;28;20234;-73
2021/04/23 10:34:01;;;;;;;5.37;2.63;;;16.70;46.80;;;;;;6232251;28;20233;-73
2021/04/23 10:37:05;;;;;;;7.50;3.10;;;17.10;47.50;;;;;;6214423;28;20242;-73
2021/04/23 10:40:17;;;;;;;4.67;2.80;;;17.20;47.60;;;;;;6213831;28;20247;-73
2021/04/23 10:43:20;;;;;;;3.93;2.33;;;16.80;46.00;;;;;;6231750;28;20297;-72
2021/04/23 10:46:23;;;;;;;4.93;3.00;;;16.70;48.80;;;;;;6234576;28;20292;-73
2021/04/23 10:49:26;;;;;;;4.73;2.43;;;17.00;46.60;;;;;;6237997;28;20565;-72
2021/04/23 10:52:28;;;;;;;5.67;2.83;;;16.90;48.60;;;;;;6237460;28;20241;-73
2021/04/23 10:55:46;;;;;;;3.83;2.40;;;16.90;46.70;;;;;;6255045;28;20707;-74
2021/04/23 10:58:49;;;;;;;4.83;2.80;;;16.60;46.00;;;;;;6237019;28;20235;-73
2021/04/23 11:01:52;;;;;;;4.23;2.40;;;16.30;46.90;;;;;;6255862;28;20250;-72
2021/04/23 11:04:59;;;;;;;5.00;2.77;;;16.50;49.00;;;;;;6242321;28;20238;-73
2021/04/23 11:08:09;;;;;;;4.10;2.93;;;16.90;45.70;;;;;;6230925;28;20228;-74
2021/04/23 11:11:13;;;;;;;4.83;2.33;;;17.10;45.70;;;;;;6212666;28;20276;-73
2021/04/23 11:14:25;;;;;;;6.83;3.00;;;17.40;46.60;;;;;;6212512;28;20290;-73
2021/04/23 11:17:32;;;;;;;8.33;2.70;;;17.70;47.10;;;;;;6212632;28;20322;-73
2021/04/23 11:20:35;;;;;;;7.60;2.67;;;17.80;44.70;;;;;;6229021;28;20310;-73
2021/04/23 11:24:05;;;;;;;4.63;2.53;;;18.20;47.30;;;;;;6237169;28;20241;-72
2021/04/23 11:27:09;;;;;;;5.43;2.97;;;18.70;44.80;;;;;;6229752;28;20711;-74
2021/04/23 11:30:12;;;;;;;4.97;3.10;;;18.40;43.20;;;;;;6211548;28;20236;-72
2021/04/23 11:33:34;;;;;;;7.40;3.17;;;18.00;45.30;;;;;;6230536;28;20599;-72
2021/04/23 11:36:42;;;;;;;7.87;3.20;;;17.90;44.70;;;;;;6229476;28;20573;-72
2021/04/23 11:39:47;;;;;;;7.07;3.03;;;17.70;45.00;;;;;;6230841;28;20271;-72
2021/04/23 11:42:57;;;;;;;7.10;2.80;;;17.40;44.80;;;;;;6212231;28;20227;-72
2021/04/23 11:45:59;;;;;;;9.40;3.57;;;17.50;44.50;;;;;;6213459;28;20397;-73
2021/04/23 11:49:01;;;;;;;6.67;3.00;;;17.80;45.40;;;;;;6254445;28;20605;-73
2021/04/23 11:52:04;;;;;;;4.70;2.93;;;18.00;44.30;;;;;;6254874;28;20245;-72
2021/04/23 11:55:14;;;;;;;6.10;2.97;;;18.40;45.60;;;;;;6254343;28;20246;-73
2021/04/23 11:58:25;;;;;;;6.33;2.80;;;19.10;44.20;;;;;;6237063;28;20241;-73
2021/04/23 12:01:37;;;;;;;7.37;3.53;;;19.50;43.80;;;;;;6236189;28;20708;-73
2021/04/23 12:04:41;;;;;;;7.33;2.90;;;19.90;42.80;;;;;;6243469;28;20635;-73
2021/04/23 12:07:45;;;;;;;6.53;2.70;;;20.40;43.60;;;;;;6213001;28;20250;-72
2021/04/23 12:10:55;;;;;;;7.87;2.90;;;20.80;43.00;;;;;;6235239;28;20236;-73
2021/04/23 12:13:56;;;;;;;6.40;3.00;;;20.80;42.70;;;;;;6234745;28;20600;-73
2021/04/23 12:16:58;;;;;;;5.53;3.17;;;20.90;40.50;;;;;;6234117;28;20326;-72
2021/04/23 12:20:10;;;;;;;6.53;3.10;;;21.00;43.10;;;;;;6205955;28;20235;-73
2021/04/23 12:23:17;;;;;;;7.57;3.20;;;21.00;40.90;;;;;;6233879;28;20274;-73
2021/04/23 12:26:19;;;;;;;4.23;3.20;;;20.10;41.00;;;;;;6234582;28;20322;-73
2021/04/23 12:29:22;;;;;;;5.23;3.20;;;19.40;41.40;;;;;;6234373;28;20354;-72
2021/04/23 12:32:24;;;;;;;9.60;3.83;;;19.10;42.30;;;;;;6240309;28;20325;-73
2021/04/23 12:35:36;;;;;;;8.83;3.00;;;18.90;42.10;;;;;;6259278;28;20235;-72
2021/04/23 12:38:40;;;;;;;6.37;2.57;;;19.00;43.50;;;;;;6240031;28;20616;-73
2021/04/23 12:41:45;;;;;;;7.93;3.50;;;19.40;42.60;;;;;;6260344;28;20330;-73
2021/04/23 12:44:59;;;;;;;7.13;3.20;;;19.80;40.50;;;;;;6257390;28;20270;-73
2021/04/23 12:48:03;;;;;;;5.93;2.97;;;19.30;41.80;;;;;;6245254;28;20227;-72
2021/04/23 12:51:06;;;;;;;7.60;3.30;;;19.10;42.10;;;;;;6240759;28;20230;-73
2021/04/23 12:54:09;;;;;;;5.53;3.10;;;19.30;41.80;;;;;;6257648;28;20219;-72
2021/04/23 12:57:29;;;;;;;5.50;2.90;;;19.30;43.20;;;;;;6240487;28;20211;-72
2021/04/23 13:00:34;;;;;;;4.87;3.10;;;19.70;41.70;;;;;;6271574;28;20223;-73
2021/04/23 13:03:35;;;;;;;7.07;3.27;;;19.50;39.70;;;;;;6245004;28;20326;-73
2021/04/23 13:06:41;;;;;;;8.17;3.20;;;19.10;41.00;;;;;;6258575;28;20599;-73
2021/04/23 13:09:47;;;;;;;6.53;3.70;;;18.50;42.00;;;;;;6241308;28;20277;-72
2021/04/23 13:13:05;;;;;;;7.83;4.00;;;18.00;42.70;;;;;;6231109;28;20381;-73
2021/04/23 13:16:07;;;;;;;6.20;3.50;;;17.70;43.20;;;;;;6234112;28;20238;-72
2021/04/23 13:19:09;;;;;;;9.10;4.03;;;17.60;43.30;;;;;;6238482;28;20313;-72
2021/04/23 13:22:30;;;;;;;8.23;4.13;;;17.90;43.90;;;;;;6256562;28;20300;-74
2021/04/23 13:25:34;;;;;;;9.30;3.50;;;18.50;41.80;;;;;;6256737;28;20265;-72
2021/04/23 13:28:43;;;;;;;5.77;3.30;;;19.20;42.90;;;;;;6258073;28;20235;-72
2021/04/23 13:32:00;;;;;;;6.17;3.27;;;19.30;42.10;;;;;;6241593;28;20717;-72
2021/04/23 13:35:02;;;;;;;5.70;3.70;;;18.80;41.50;;;;;;6240523;28;20231;-72
2021/04/23 13:38:27;;;;;;;7.17;3.27;;;18.60;41.10;;;;;;6241283;28;20238;-72
2021/04/23 13:41:36;;;;;;;6.03;3.30;;;18.30;42.30;;;;;;6258245;28;20242;-72
2021/04/23 13:44:38;;;;;;;7.80;3.27;;;18.50;42.60;;;;;;6224048;28;20280;-72
2021/04/23 13:47:42;;;;;;;7.87;3.60;;;18.80;42.70;;;;;;6257652;28;20296;-72
2021/04/23 13:50:44;;;;;;;8.90;4.10;;;19.10;42.60;;;;;;6256883;28;20742;-72
2021/04/23 13:53:48;;;;;;;11.20;4.10;;;19.00;40.70;;;;;;6256185;28;20571;-72
2021/04/23 13:56:52;;;;;;;9.00;4.03;;;18.40;41.10;;;;;;6257065;28;20229;-72
2021/04/23 13:59:55;;;;;;;6.80;3.60;;;18.10;42.00;;;;;;6257583;28;20365;-72
2021/04/23 14:03:01;;;;;;;5.03;3.00;;;18.40;42.20;;;;;;6256788;28;20675;-72
2021/04/23 14:06:03;;;;;;;6.27;3.83;;;18.60;42.60;;;;;;6234721;28;20232;-72
2021/04/23 14:09:08;;;;;;;5.73;3.73;;;18.60;43.20;;;;;;6231357;28;20548;-73
2021/04/23 14:12:12;;;;;;;7.40;4.00;;;18.40;42.20;;;;;;6215583;28;20231;-72
2021/04/23 14:15:15;;;;;;;7.50;3.93;;;17.70;42.70;;;;;;6214745;28;20201;-72
2021/04/23 14:18:16;;;;;;;6.43;3.93;;;17.40;43.60;;;;;;6231654;28;20665;-71
2021/04/23 14:21:19;;;;;;;7.77;3.70;;;17.10;43.70;;;;;;6254117;28;20310;-72
2021/04/23 14:24:21;;;;;;;6.43;3.47;;;16.80;43.80;;;;;;6257166;28;20203;-71
2021/04/23 14:27:22;;;;;;;7.03;3.50;;;16.70;45.60;;;;;;6256706;28;20712;-72
2021/04/23 14:30:24;;;;;;;5.27;3.17;;;17.60;44.20;;;;;;6255586;28;20262;-72
2021/04/23 14:33:26;;;;;;;7.13;3.33;;;18.70;42.80;;;;;;6256454;28;20573;-71
2021/04/23 14:36:28;;;;;;;7.57;3.47;;;19.30;41.80;;;;;;6238303;28;20292;-71
2021/04/23 14:39:30;;;;;;;6.73;3.20;;;19.30;41.40;;;;;;6256512;28;20365;-71
2021/04/23 14:42:32;;;;;;;6.83;3.37;;;19.00;41.30;;;;;;6256471;28;20544;-72
2021/04/23 14:45:33;;;;;;;5.63;3.40;;;19.00;41.50;;;;;;6254725;28;20310;-72
2021/04/23 14:48:35;;;;;;;9.60;3.90;;;18.80;41.30;;;;;;6256799;28;20267;-72
2021/04/23 14:51:39;;;;;;;6.93;3.87;;;18.70;42.20;;;;;;6255537;28;20234;-73
2021/04/23 14:54:41;;;;;;;6.67;3.60;;;19.20;40.90;;;;;;6256446;28;20245;-71
2021/04/23 14:57:43;;;;;;;5.53;2.87;;;19.30;41.00;;;;;;6237494;28;20238;-71
2021/04/23 15:00:46;;;;;;;5.77;2.80;;;19.00;41.20;;;;;;6238472;28;20231;-72
2021/04/23 15:03:48;;;;;;;6.53;3.57;;;19.00;41.10;;;;;;6251216;28;20789;-72
2021/04/23 15:06:51;;;;;;;9.73;2.93;;;20.30;40.00;;;;;;6230393;28;20235;-72
2021/04/23 15:10:03;;;;;;;6.50;3.00;;;21.40;38.50;;;;;;6230971;28;20704;-72
2021/04/23 15:13:07;;;;;;;9.77;3.40;;;22.00;36.60;;;;;;6213039;28;20293;-72
2021/04/23 15:16:09;;;;;;;6.50;3.03;;;21.10;37.50;;;;;;6231095;28;20326;-72
2021/04/23 15:19:12;;;;;;;6.63;3.40;;;21.00;38.50;;;;;;6235899;28;20230;-72
2021/04/23 15:22:14;;;;;;;9.40;3.10;;;20.70;38.40;;;;;;6254403;28;20253;-72
2021/04/23 15:25:17;;;;;;;4.53;3.00;;;20.10;38.10;;;;;;6255563;28;20242;-72
2021/04/23 15:28:21;;;;;;;3.63;2.47;;;19.90;38.80;;;;;;6254529;28;20372;-72
2021/04/23 15:31:22;;;;;;;10.10;3.03;;;21.00;38.00;;;;;;6255339;28;20245;-73
2021/04/23 15:34:25;;;;;;;6.13;3.10;;;22.20;36.60;;;;;;6227291;28;20803;-71
2021/04/23 15:37:26;;;;;;;7.37;3.00;;;21.70;36.60;;;;;;6230663;28;20712;-71
2021/04/23 15:40:28;;;;;;;5.87;2.17;;;20.70;37.50;;;;;;6229734;28;20253;-71
2021/04/23 15:43:30;;;;;;;5.07;2.50;;;20.50;38.80;;;;;;6229715;28;20285;-72
2021/04/23 15:46:32;;;;;;;4.30;2.30;;;20.60;38.10;;;;;;6234822;28;20301;-72
2021/04/23 15:49:34;;;;;;;5.63;2.50;;;20.90;37.80;;;;;;6255259;28;20238;-72
2021/04/23 15:52:36;;;;;;;7.97;3.27;;;20.80;37.90;;;;;;6237533;28;20246;-73
2021/04/23 15:55:39;;;;;;;6.90;3.17;;;20.30;37.40;;;;;;6254619;28;20242;-72
2021/04/23 15:58:41;;;;;;;6.33;3.00;;;19.40;38.50;;;;;;6236308;28;20325;-72
2021/04/23 16:01:43;;;;;;;6.53;2.97;;;18.50;39.20;;;;;;6236976;28;20235;-72
2021/04/23 16:04:45;;;;;;;3.60;2.70;;;17.90;41.10;;;;;;6236439;28;20239;-72